Time;durP1;ratioP1;P1;durP2;ratioP2;P2;SDS_P1;SDS_P2;PMS_P1;PMS_P2;Temp;Humidity;BMP_temperature;BMP_pressure;BME280_temperature;BME280_humidity;BME280_pressure;Samples;Min_cycle;Max_cycle;Signal;HPM_P1;HPM_P2
2022/12/02 00:00:20;;;;;;;37.70;28.08;;;;;;;1.48;100.00;96140.34;5062515;28;24450;-72
2022/12/02 00:02:47;;;;;;;41.45;29.92;;;;;;;1.42;100.00;96135.38;5067703;28;24442;-71
2022/12/02 00:05:27;;;;;;;36.13;28.30;;;;;;;1.49;100.00;96131.00;5069193;28;24517;-70
2022/12/02 00:07:55;;;;;;;44.53;31.10;;;;;;;1.38;100.00;96129.50;5061121;28;24433;-72
2022/12/02 00:10:24;;;;;;;40.47;28.85;;;;;;;1.37;100.00;96132.06;5068595;28;24442;-72
2022/12/02 00:12:51;;;;;;;46.63;30.75;;;;;;;1.35;100.00;96128.72;5059812;28;24454;-72
2022/12/02 00:15:37;;;;;;;36.65;29.15;;;;;;;1.30;100.00;96125.41;5056216;28;24458;-72
2022/12/02 00:18:04;;;;;;;33.55;28.60;;;;;;;1.33;100.00;96123.63;5056649;28;24464;-70
2022/12/02 00:20:30;;;;;;;41.20;31.23;;;;;;;1.33;100.00;96128.75;5061771;28;24442;-71
2022/12/02 00:22:57;;;;;;;39.95;30.38;;;;;;;1.29;100.00;96123.75;5064164;28;24442;-71
2022/12/02 00:25:23;;;;;;;37.78;28.90;;;;;;;1.35;100.00;96121.06;5057610;28;24437;-72
2022/12/02 00:27:50;;;;;;;45.60;28.98;;;;;;;1.32;100.00;96116.03;5060770;28;24434;-72
2022/12/02 00:30:16;;;;;;;39.38;30.27;;;;;;;1.32;100.00;96109.22;5067082;28;24434;-72
2022/12/02 00:32:44;;;;;;;38.78;29.13;;;;;;;1.32;100.00;96110.94;5067920;28;25290;-71
2022/12/02 00:35:11;;;;;;;46.50;30.83;;;;;;;1.31;100.00;96106.69;5056905;28;25000;-73
2022/12/02 00:37:37;;;;;;;49.20;31.25;;;;;;;1.30;100.00;96110.09;5062849;28;24439;-71
2022/12/02 00:40:05;;;;;;;44.20;29.77;;;;;;;1.38;100.00;96105.69;5068067;28;24808;-71
2022/12/02 00:42:31;;;;;;;41.60;31.40;;;;;;;1.35;100.00;96109.16;5065993;28;24445;-71
2022/12/02 00:47:42;;;;;;;43.63;30.70;;;;;;;1.44;100.00;96114.03;5063009;28;24426;-71
2022/12/02 00:50:11;;;;;;;44.42;30.65;;;;;;;1.48;100.00;96112.25;5071002;28;24439;-71
2022/12/02 00:52:37;;;;;;;42.20;29.97;;;;;;;1.49;100.00;96105.47;5067889;28;24564;-71
2022/12/02 00:55:04;;;;;;;46.55;31.20;;;;;;;1.36;100.00;96100.63;5060806;28;25020;-71
2022/12/02 00:57:31;;;;;;;40.50;30.85;;;;;;;1.37;100.00;96096.34;5069937;28;24990;-71
2022/12/02 00:59:57;;;;;;;40.08;30.98;;;;;;;1.30;100.00;96095.66;5071308;28;24457;-71
2022/12/02 01:02:24;;;;;;;46.58;33.08;;;;;;;1.31;100.00;96101.59;5071419;28;24438;-72
2022/12/02 01:04:50;;;;;;;43.47;32.25;;;;;;;1.25;100.00;96091.50;5069088;28;24427;-71
2022/12/02 01:07:18;;;;;;;44.15;32.15;;;;;;;1.37;100.00;96089.56;5071043;28;24458;-71
2022/12/02 01:09:45;;;;;;;44.87;32.37;;;;;;;1.29;100.00;96088.03;5065631;28;24434;-71
2022/12/02 01:12:11;;;;;;;45.05;33.28;;;;;;;1.25;100.00;96086.41;5065241;28;25009;-72
2022/12/02 01:14:38;;;;;;;47.15;31.98;;;;;;;1.29;100.00;96080.38;5068150;28;24431;-72
2022/12/02 01:17:04;;;;;;;41.22;31.45;;;;;;;1.27;100.00;96080.41;5071344;28;24450;-72
2022/12/02 01:19:31;;;;;;;48.60;31.63;;;;;;;1.18;100.00;96081.44;5066911;28;24438;-72
2022/12/02 01:21:57;;;;;;;40.45;31.38;;;;;;;1.27;100.00;96080.41;5057568;28;24451;-72
2022/12/02 01:24:25;;;;;;;47.65;31.13;;;;;;;1.21;100.00;96078.81;5067431;28;25339;-71
2022/12/02 01:26:52;;;;;;;47.85;32.05;;;;;;;1.33;100.00;96079.41;5069471;28;24435;-71
2022/12/02 01:29:18;;;;;;;53.47;32.05;;;;;;;1.22;100.00;96069.44;5062145;28;24450;-71
2022/12/02 01:31:45;;;;;;;51.20;31.92;;;;;;;1.18;100.00;96075.50;5067920;28;24933;-71
2022/12/02 01:34:11;;;;;;;42.90;31.15;;;;;;;1.31;100.00;96071.81;5062486;28;24439;-70
2022/12/02 01:36:38;;;;;;;43.50;31.65;;;;;;;1.32;100.00;96068.38;5069678;28;24454;-70
2022/12/02 01:39:04;;;;;;;43.27;30.00;;;;;;;1.29;100.00;96075.25;5070236;28;24470;-70
2022/12/02 01:41:32;;;;;;;41.38;30.75;;;;;;;1.28;100.00;96076.16;5070362;28;25022;-71
2022/12/02 01:43:59;;;;;;;44.53;30.23;;;;;;;1.24;100.00;96069.44;5064938;28;24446;-72
2022/12/02 01:46:26;;;;;;;36.28;29.83;;;;;;;1.23;100.00;96072.88;5071128;28;24438;-71
2022/12/02 01:48:52;;;;;;;52.25;31.75;;;;;;;1.18;100.00;96073.78;5058305;28;25018;-71
2022/12/02 01:51:19;;;;;;;53.97;31.75;;;;;;;1.10;100.00;96070.56;5063989;28;24800;-71
2022/12/02 01:53:45;;;;;;;40.03;30.00;;;;;;;1.15;100.00;96066.22;5063733;28;24440;-71
2022/12/02 01:56:12;;;;;;;40.40;29.67;;;;;;;1.29;100.00;96068.44;5070846;28;24462;-71
2022/12/02 01:58:40;;;;;;;46.13;29.70;;;;;;;1.29;100.00;96076.09;5069418;28;24987;-71
2022/12/02 02:01:22;;;;;;;42.17;29.95;;;;;;;1.41;100.00;96078.41;5071295;28;24449;-71
2022/12/02 02:03:48;;;;;;;41.55;29.30;;;;;;;1.45;100.00;96071.53;5070940;28;24435;-72
2022/12/02 02:06:15;;;;;;;41.15;28.38;;;;;;;1.44;100.00;96073.22;5064313;28;24441;-70
2022/12/02 02:08:42;;;;;;;39.33;27.08;;;;;;;1.49;100.00;96069.75;5069955;28;24435;-70
2022/12/02 02:11:08;;;;;;;37.15;28.38;;;;;;;1.43;100.00;96068.97;5071359;28;24446;-70
2022/12/02 02:13:35;;;;;;;35.33;27.70;;;;;;;1.47;100.00;96067.19;5065150;28;24513;-71
2022/12/02 02:16:03;;;;;;;41.70;28.40;;;;;;;1.46;100.00;96060.44;5071127;28;24451;-72
2022/12/02 02:18:29;;;;;;;42.05;28.02;;;;;;;1.38;100.00;96067.44;5069214;28;24431;-72
2022/12/02 02:20:58;;;;;;;38.83;27.65;;;;;;;1.33;100.00;96052.19;5070873;28;25003;-71
2022/12/02 02:23:27;;;;;;;33.10;27.60;;;;;;;1.25;100.00;96053.25;5065865;28;24546;-71
2022/12/02 02:25:57;;;;;;;36.88;27.02;;;;;;;1.27;100.00;96056.63;5070900;28;24435;-71
2022/12/02 02:28:25;;;;;;;39.33;28.15;;;;;;;1.24;100.00;96052.41;5064392;28;24485;-71
2022/12/02 02:30:53;;;;;;;35.63;26.73;;;;;;;1.18;100.00;96055.06;5063525;28;24431;-71
2022/12/02 02:33:22;;;;;;;30.33;25.63;;;;;;;1.17;100.00;96055.97;5067248;28;24434;-72
2022/12/02 02:35:49;;;;;;;40.53;26.93;;;;;;;1.06;100.00;96055.34;5069842;28;24457;-70
2022/12/02 02:38:18;;;;;;;41.03;27.48;;;;;;;1.03;100.00;96053.69;5064620;28;24440;-71
2022/12/02 02:40:46;;;;;;;32.33;25.38;;;;;;;1.12;100.00;96045.03;5068181;28;24443;-71
2022/12/02 02:43:14;;;;;;;37.00;26.48;;;;;;;1.14;100.00;96038.16;5060105;28;24992;-71
2022/12/02 02:45:42;;;;;;;38.58;27.65;;;;;;;1.09;100.00;96038.25;5059431;28;24985;-72
2022/12/02 02:48:11;;;;;;;48.55;27.27;;;;;;;1.05;100.00;96044.31;5067225;28;24429;-73
2022/12/02 02:50:40;;;;;;;35.45;26.77;;;;;;;1.01;100.00;96037.59;5064106;28;24943;-72
2022/12/02 02:53:07;;;;;;;36.00;26.00;;;;;;;1.05;100.00;96041.75;5059977;28;24931;-72
2022/12/02 02:55:34;;;;;;;33.47;25.05;;;;;;;1.14;100.00;96038.16;5069918;28;24447;-71
2022/12/02 02:58:09;;;;;;;34.78;24.73;;;;;;;1.10;100.00;96036.56;5061364;28;24435;-72
2022/12/02 03:00:36;;;;;;;35.25;26.33;;;;;;;1.08;100.00;96040.88;5063070;28;24426;-71
2022/12/02 03:03:04;;;;;;;29.92;23.45;;;;;;;1.18;100.00;96032.94;5066674;28;24442;-71
2022/12/02 03:05:30;;;;;;;41.78;26.35;;;;;;;1.08;100.00;96033.22;5068968;28;24426;-70
2022/12/02 03:07:57;;;;;;;40.65;24.60;;;;;;;1.01;100.00;96029.94;5061592;28;24439;-71
2022/12/02 03:10:24;;;;;;;36.38;23.90;;;;;;;0.98;100.00;96029.16;5061966;28;24441;-71
2022/12/02 03:12:52;;;;;;;35.00;24.42;;;;;;;0.97;100.00;96025.78;5067010;28;24438;-71
2022/12/02 03:15:21;;;;;;;30.77;22.70;;;;;;;1.06;100.00;96025.56;5065983;28;24449;-71
2022/12/02 03:17:48;;;;;;;33.53;24.13;;;;;;;1.24;100.00;96028.59;5063870;28;24438;-72
2022/12/02 03:20:16;;;;;;;32.38;22.92;;;;;;;1.19;100.00;96016.78;5060514;28;24996;-71
2022/12/02 03:22:42;;;;;;;32.55;22.45;;;;;;;1.21;100.00;96022.69;5067570;28;24455;-72
2022/12/02 03:25:10;;;;;;;26.45;21.73;;;;;;;1.24;100.00;96023.50;5065245;28;24431;-71
2022/12/02 03:27:37;;;;;;;35.03;21.77;;;;;;;1.20;100.00;96023.56;5065301;28;24492;-71
2022/12/02 03:30:05;;;;;;;27.15;20.90;;;;;;;1.31;100.00;96025.03;5059755;28;24442;-70
2022/12/02 03:32:33;;;;;;;28.75;22.00;;;;;;;1.29;100.00;96019.13;5065511;28;24840;-71
2022/12/02 03:35:01;;;;;;;29.80;21.73;;;;;;;1.23;100.00;96021.84;5061804;28;24435;-71
2022/12/02 03:37:28;;;;;;;26.57;20.07;;;;;;;1.33;100.00;96016.47;5057461;28;24458;-72
2022/12/02 03:39:55;;;;;;;27.08;21.50;;;;;;;1.19;100.00;96016.78;5064162;28;24431;-72
2022/12/02 03:42:21;;;;;;;35.08;20.90;;;;;;;1.15;100.00;96021.97;5064510;28;24442;-72
2022/12/02 03:44:49;;;;;;;30.80;20.90;;;;;;;1.05;100.00;96020.53;5060699;28;24435;-72
2022/12/02 03:47:15;;;;;;;27.93;21.33;;;;;;;1.00;100.00;96020.59;5066067;28;24433;-73
2022/12/02 03:49:44;;;;;;;25.27;19.35;;;;;;;1.13;100.00;96016.91;5058055;28;24988;-70
2022/12/02 03:52:11;;;;;;;23.98;20.35;;;;;;;1.15;100.00;96024.53;5062995;28;24453;-72
2022/12/02 03:54:38;;;;;;;33.40;21.52;;;;;;;1.11;100.00;96018.69;5060783;28;24439;-72
2022/12/02 03:57:06;;;;;;;38.10;20.10;;;;;;;1.11;100.00;96017.81;5061025;28;24457;-72
2022/12/02 03:59:32;;;;;;;38.80;19.50;;;;;;;0.99;100.00;96011.28;5060503;28;24438;-71
2022/12/02 04:01:59;;;;;;;26.75;19.33;;;;;;;1.15;100.00;96011.78;5066734;28;24777;-71
2022/12/02 04:04:25;;;;;;;26.00;18.63;;;;;;;1.04;100.00;96012.03;5060543;28;24431;-72
2022/12/02 04:06:53;;;;;;;25.20;18.27;;;;;;;1.04;100.00;95999.28;5060891;28;24431;-71
2022/12/02 04:09:20;;;;;;;25.35;18.02;;;;;;;0.99;100.00;96007.88;5061941;28;24492;-71
2022/12/02 04:11:46;;;;;;;25.58;17.58;;;;;;;0.92;100.00;95997.81;5064281;28;24792;-71
2022/12/02 04:14:13;;;;;;;22.80;17.67;;;;;;;0.95;100.00;95999.47;5056271;28;24438;-71
2022/12/02 04:16:39;;;;;;;24.08;18.10;;;;;;;0.89;100.00;95995.34;5056467;28;25008;-72
2022/12/02 04:19:06;;;;;;;27.00;18.63;;;;;;;0.97;100.00;95995.19;5062639;28;24479;-72
2022/12/02 04:21:32;;;;;;;22.83;17.15;;;;;;;1.02;100.00;96001.00;5064933;28;24450;-71
2022/12/02 04:24:00;;;;;;;22.60;17.88;;;;;;;1.05;100.00;95990.75;5063870;28;24443;-72
2022/12/02 04:26:27;;;;;;;29.15;19.35;;;;;;;0.99;100.00;95995.13;5053039;28;24427;-72
2022/12/02 04:28:53;;;;;;;25.67;18.38;;;;;;;0.99;100.00;95998.53;5058554;28;24438;-71
2022/12/02 04:31:20;;;;;;;24.93;19.47;;;;;;;0.97;100.00;95992.63;5058067;28;24439;-72
2022/12/02 04:33:46;;;;;;;32.92;19.23;;;;;;;0.89;100.00;95992.78;5059969;28;24454;-71
2022/12/02 04:36:13;;;;;;;29.27;19.27;;;;;;;0.90;100.00;95988.53;5057088;28;24809;-70
2022/12/02 04:38:39;;;;;;;33.40;20.08;;;;;;;0.96;100.00;95986.69;5063360;28;24446;-72
2022/12/02 04:41:07;;;;;;;35.92;20.00;;;;;;;0.90;100.00;95985.97;5066229;28;24430;-71
2022/12/02 04:43:34;;;;;;;28.27;19.10;;;;;;;0.92;100.00;95984.22;5060096;28;24509;-71
2022/12/02 04:46:00;;;;;;;27.10;19.25;;;;;;;0.92;100.00;95974.03;5061147;28;24989;-71
2022/12/02 04:48:27;;;;;;;26.58;19.58;;;;;;;0.96;100.00;95973.94;5065479;28;24477;-71
2022/12/02 04:50:53;;;;;;;38.55;20.15;;;;;;;0.95;100.00;95976.50;5068745;28;24447;-70
2022/12/02 04:53:20;;;;;;;38.03;20.17;;;;;;;0.92;100.00;95972.31;5063234;28;24450;-70
2022/12/02 04:55:46;;;;;;;33.78;20.35;;;;;;;1.06;100.00;95977.13;5064267;28;24439;-70
2022/12/02 04:58:14;;;;;;;36.60;19.63;;;;;;;1.06;100.00;95971.19;5063399;28;24809;-71
2022/12/02 05:00:41;;;;;;;26.48;19.85;;;;;;;1.05;100.00;95977.16;5067813;28;24445;-71
2022/12/02 05:03:08;;;;;;;35.80;20.87;;;;;;;1.08;100.00;95974.53;5060203;28;24442;-71
2022/12/02 05:05:34;;;;;;;64.57;22.08;;;;;;;1.00;100.00;95973.84;5065925;28;25011;-72
2022/12/02 05:08:01;;;;;;;51.78;21.70;;;;;;;0.98;100.00;95976.44;5062891;28;25015;-72
2022/12/02 05:10:27;;;;;;;33.20;20.58;;;;;;;1.02;100.00;95970.41;5066167;28;25026;-72
2022/12/02 05:12:54;;;;;;;33.78;22.48;;;;;;;1.15;100.00;95976.91;5064417;28;24447;-72
2022/12/02 05:15:22;;;;;;;62.10;22.00;;;;;;;0.97;100.00;95974.78;5060025;28;24441;-71
2022/12/02 05:17:48;;;;;;;36.13;20.73;;;;;;;1.05;100.00;95974.59;5063919;28;24458;-72
2022/12/02 05:20:15;;;;;;;37.35;21.80;;;;;;;1.09;100.00;95976.22;5063046;28;24434;-72
2022/12/02 05:22:42;;;;;;;44.90;22.38;;;;;;;1.06;100.00;95971.19;5065125;28;25084;-72
2022/12/02 05:25:09;;;;;;;31.67;21.58;;;;;;;1.16;100.00;95968.38;5059854;28;24442;-72
2022/12/02 05:27:35;;;;;;;35.47;19.55;;;;;;;1.14;100.00;95972.66;5060041;28;24427;-72
2022/12/02 05:30:02;;;;;;;39.45;21.75;;;;;;;1.02;100.00;95961.91;5057947;28;24446;-71
2022/12/02 05:32:30;;;;;;;38.88;21.75;;;;;;;1.01;100.00;95967.91;5064610;28;25558;-70
2022/12/02 05:34:56;;;;;;;39.13;21.77;;;;;;;0.92;100.00;95967.22;5067989;28;24437;-71
2022/12/02 05:37:23;;;;;;;30.95;20.88;;;;;;;0.92;100.00;95959.56;5071405;28;24892;-71
2022/12/02 05:39:49;;;;;;;48.47;21.88;;;;;;;0.89;100.00;95961.34;5071143;28;24445;-71
2022/12/02 05:42:16;;;;;;;37.43;20.77;;;;;;;0.86;100.00;95961.44;5066850;28;24438;-72
2022/12/02 05:44:43;;;;;;;47.40;22.00;;;;;;;0.83;100.00;95959.78;5068370;28;24434;-72
2022/12/02 05:47:11;;;;;;;41.67;22.65;;;;;;;0.82;100.00;95962.38;5070563;28;24530;-71
2022/12/02 05:49:40;;;;;;;47.70;23.30;;;;;;;0.83;100.00;95964.03;5064630;28;24430;-71
2022/12/02 05:52:20;;;;;;;46.08;23.05;;;;;;;0.81;100.00;95958.13;5069828;28;24529;-71
2022/12/02 05:54:47;;;;;;;48.38;23.33;;;;;;;0.79;100.00;95958.16;5067290;28;24451;-71
2022/12/02 05:57:14;;;;;;;54.03;22.52;;;;;;;0.77;100.00;95959.06;5071055;28;24455;-70
2022/12/02 05:59:40;;;;;;;38.97;22.07;;;;;;;0.81;100.00;95965.75;5068464;28;24494;-71
2022/12/02 06:02:23;;;;;;;42.17;23.27;;;;;;;0.89;100.00;95957.09;5063099;28;24488;-71
2022/12/02 06:04:51;;;;;;;31.13;21.25;;;;;;;0.97;100.00;95954.38;5066110;28;24442;-71
2022/12/02 06:07:18;;;;;;;33.58;21.20;;;;;;;0.95;100.00;95958.66;5065302;28;24439;-71
2022/12/02 06:09:45;;;;;;;29.25;21.45;;;;;;;1.08;100.00;95957.53;5061911;28;24793;-72
2022/12/02 06:12:16;;;;;;;34.83;22.85;;;;;;;1.16;100.00;95957.34;5070246;28;24451;-73
2022/12/02 06:14:47;;;;;;;36.53;21.25;;;;;;;1.17;100.00;95966.66;5059561;28;24446;-71
2022/12/02 06:17:16;;;;;;;32.78;20.52;;;;;;;1.19;100.00;95958.13;5059233;28;24504;-70
2022/12/02 06:19:44;;;;;;;29.45;21.67;;;;;;;1.20;100.00;95964.88;5064704;28;24435;-70
2022/12/02 06:22:18;;;;;;;41.05;23.15;;;;;;;1.07;100.00;95966.03;5061020;28;24443;-70
2022/12/02 06:24:45;;;;;;;39.92;22.70;;;;;;;1.04;100.00;95961.03;5064892;28;24440;-70
2022/12/02 06:27:14;;;;;;;31.38;22.55;;;;;;;1.12;100.00;95958.28;5064105;28;24437;-70
2022/12/02 06:29:47;;;;;;;29.73;21.55;;;;;;;1.20;100.00;95953.84;5063300;28;24973;-70
2022/12/02 06:32:18;;;;;;;34.37;22.27;;;;;;;1.26;100.00;95957.97;5065575;28;24459;-70
2022/12/02 06:34:45;;;;;;;31.60;22.50;;;;;;;1.26;100.00;95956.28;5065011;28;25082;-70
2022/12/02 06:37:19;;;;;;;33.92;23.20;;;;;;;1.25;100.00;95958.84;5069778;28;25004;-70
2022/12/02 06:39:48;;;;;;;35.60;22.10;;;;;;;1.28;100.00;95961.31;5064314;28;24453;-71
2022/12/02 06:42:20;;;;;;;32.97;21.70;;;;;;;1.21;100.00;95951.25;5070471;28;25018;-70
2022/12/02 06:45:04;;;;;;;37.10;22.80;;;;;;;1.20;100.00;95956.41;5067594;28;24478;-70
2022/12/02 06:47:49;;;;;;;40.85;22.60;;;;;;;1.23;100.00;95960.59;5062076;28;24431;-70
2022/12/02 06:50:25;;;;;;;28.73;20.33;;;;;;;1.31;100.00;95959.53;5059655;28;24434;-70
2022/12/02 06:52:56;;;;;;;26.45;20.30;;;;;;;1.31;100.00;95953.59;5068102;28;25008;-70
2022/12/02 06:55:31;;;;;;;27.88;20.48;;;;;;;1.29;100.00;95961.28;5069443;28;24800;-70
2022/12/02 06:58:05;;;;;;;27.98;20.73;;;;;;;1.30;100.00;95959.56;5063142;28;24447;-72
2022/12/02 07:00:32;;;;;;;41.17;22.23;;;;;;;1.20;100.00;95954.69;5060311;28;24480;-70
2022/12/02 07:02:59;;;;;;;40.25;21.42;;;;;;;1.05;100.00;95955.03;5064968;28;24439;-70
2022/12/02 07:05:25;;;;;;;28.70;20.67;;;;;;;1.13;100.00;95958.25;5061201;28;24461;-71
2022/12/02 07:07:53;;;;;;;29.98;20.55;;;;;;;1.25;100.00;95957.13;5065691;28;24518;-71
2022/12/02 07:10:21;;;;;;;31.50;20.02;;;;;;;1.32;100.00;95962.94;5068653;28;24434;-70
2022/12/02 07:12:48;;;;;;;30.77;19.65;;;;;;;1.29;100.00;95958.72;5060875;28;24449;-70
2022/12/02 07:15:25;;;;;;;33.70;19.43;;;;;;;1.13;100.00;95953.16;5061379;28;24445;-71
2022/12/02 07:17:51;;;;;;;44.17;20.10;;;;;;;1.05;100.00;95957.59;5062456;28;24451;-70
2022/12/02 07:20:30;;;;;;;36.35;20.80;;;;;;;1.11;100.00;95954.03;5064788;28;24860;-71
2022/12/02 07:23:00;;;;;;;25.75;19.77;;;;;;;1.23;100.00;95958.06;5057056;28;24446;-71
2022/12/02 07:25:45;;;;;;;36.95;21.75;;;;;;;1.09;100.00;95953.25;5068544;28;24431;-71
2022/12/02 07:28:25;;;;;;;36.63;19.85;;;;;;;0.99;100.00;95957.72;5065566;28;24492;-73
2022/12/02 07:30:58;;;;;;;34.78;19.27;;;;;;;1.00;100.00;95953.44;5064698;28;24435;-70
2022/12/02 07:33:25;;;;;;;28.52;18.95;;;;;;;0.97;100.00;95959.47;5067867;28;24989;-70
2022/12/02 07:35:51;;;;;;;26.95;18.70;;;;;;;1.05;100.00;95957.59;5061190;28;24438;-73
2022/12/02 07:38:19;;;;;;;37.80;20.33;;;;;;;0.98;100.00;95952.66;5062412;28;24989;-71
2022/12/02 07:40:46;;;;;;;30.27;19.73;;;;;;;1.05;100.00;95949.94;5066157;28;24430;-71
2022/12/02 07:43:13;;;;;;;34.70;19.67;;;;;;;0.95;100.00;95956.94;5064273;28;24442;-70
2022/12/02 07:45:40;;;;;;;35.08;19.40;;;;;;;0.92;100.00;95957.00;5063912;28;24430;-71
2022/12/02 07:48:06;;;;;;;26.77;18.37;;;;;;;1.02;100.00;95959.38;5062709;28;25003;-70
2022/12/02 07:50:33;;;;;;;26.02;18.73;;;;;;;1.03;100.00;95953.38;5066983;28;24446;-70
2022/12/02 07:52:59;;;;;;;30.65;19.15;;;;;;;1.12;100.00;95953.19;5057082;28;24435;-71
2022/12/02 07:55:27;;;;;;;46.53;20.02;;;;;;;1.14;100.00;95956.53;5065844;28;24431;-70
2022/12/02 07:57:54;;;;;;;40.58;18.98;;;;;;;0.91;100.00;95954.50;5064141;28;24813;-71
2022/12/02 08:00:22;;;;;;;37.80;19.45;;;;;;;0.97;100.00;95956.94;5059728;28;24438;-71
2022/12/02 08:02:48;;;;;;;31.10;18.93;;;;;;;1.07;100.00;95955.81;5058285;28;25013;-71
2022/12/02 08:05:15;;;;;;;29.42;20.25;;;;;;;1.17;100.00;95951.38;5066629;28;25194;-71
2022/12/02 08:07:42;;;;;;;32.28;19.30;;;;;;;1.21;100.00;95951.25;5060541;28;24439;-73
2022/12/02 08:10:10;;;;;;;27.73;18.73;;;;;;;1.25;100.00;95953.72;5067431;28;24434;-70
2022/12/02 08:12:38;;;;;;;28.95;18.67;;;;;;;1.32;100.00;95960.38;5058985;28;24453;-71
2022/12/02 08:15:06;;;;;;;26.42;18.13;;;;;;;1.29;100.00;95960.44;5064275;28;24439;-71
2022/12/02 08:17:33;;;;;;;32.45;19.20;;;;;;;1.25;100.00;95957.13;5061096;28;24451;-71
2022/12/02 08:19:59;;;;;;;33.92;19.08;;;;;;;1.08;100.00;95959.25;5063905;28;24438;-71
2022/12/02 08:22:26;;;;;;;42.40;17.85;;;;;;;1.00;100.00;95959.38;5057779;28;24436;-70
2022/12/02 08:24:54;;;;;;;20.15;17.00;;;;;;;1.06;100.00;95959.25;5066531;28;24446;-71
2022/12/02 08:27:21;;;;;;;31.10;17.10;;;;;;;1.08;100.00;95956.69;5063929;28;24533;-71
2022/12/02 08:29:49;;;;;;;27.42;17.38;;;;;;;1.28;100.00;95954.50;5061928;28;24431;-71
2022/12/02 08:32:16;;;;;;;27.90;17.88;;;;;;;1.23;100.00;95956.34;5064141;28;25197;-71
2022/12/02 08:34:43;;;;;;;27.65;17.77;;;;;;;1.17;100.00;95956.47;5066644;28;24438;-71
2022/12/02 08:37:10;;;;;;;31.50;17.77;;;;;;;1.16;100.00;95950.53;5058709;28;24458;-71
2022/12/02 08:39:36;;;;;;;24.20;17.95;;;;;;;1.24;100.00;95952.06;5064155;28;25019;-71
2022/12/02 08:42:04;;;;;;;27.73;17.20;;;;;;;1.17;100.00;95951.38;5055713;28;24446;-71
2022/12/02 08:44:30;;;;;;;29.67;17.42;;;;;;;1.07;100.00;95949.88;5058011;28;25195;-70
2022/12/02 08:46:58;;;;;;;24.23;16.20;;;;;;;1.08;100.00;95947.31;5062132;28;24442;-71
2022/12/02 08:49:25;;;;;;;24.45;16.10;;;;;;;1.30;100.00;95950.22;5063962;28;25018;-71
2022/12/02 08:51:51;;;;;;;23.70;16.42;;;;;;;1.36;100.00;95944.94;5068959;28;24939;-71
2022/12/02 08:54:18;;;;;;;27.27;18.63;;;;;;;1.52;100.00;95937.78;5059421;28;24435;-71
2022/12/02 08:56:45;;;;;;;31.45;17.80;;;;;;;1.42;100.00;95946.53;5068638;28;24439;-71
2022/12/02 08:59:12;;;;;;;22.80;17.27;;;;;;;1.43;100.00;95941.38;5061579;28;24447;-71
2022/12/02 09:01:38;;;;;;;31.27;16.92;;;;;;;1.45;100.00;95938.81;5065407;28;24442;-72
2022/12/02 09:04:06;;;;;;;23.88;17.80;;;;;;;1.44;100.00;95937.94;5065761;28;24439;-72
2022/12/02 09:06:33;;;;;;;32.87;17.60;;;;;;;1.29;100.00;95935.75;5072365;28;24427;-71
2022/12/02 09:08:59;;;;;;;25.58;17.60;;;;;;;1.31;100.00;95935.75;5068982;28;24438;-72
2022/12/02 09:11:26;;;;;;;27.45;16.02;;;;;;;1.37;100.00;95933.03;5068603;28;24434;-71
2022/12/02 09:13:52;;;;;;;30.13;17.65;;;;;;;1.12;100.00;95932.78;5068899;28;24441;-71
2022/12/02 09:16:19;;;;;;;33.03;18.40;;;;;;;1.07;100.00;95930.31;5072146;28;24450;-71
2022/12/02 09:18:45;;;;;;;29.95;17.70;;;;;;;1.12;100.00;95936.16;5066092;28;24459;-71
2022/12/02 09:21:13;;;;;;;37.53;19.38;;;;;;;1.08;100.00;95937.13;5062586;28;24450;-71
2022/12/02 09:23:40;;;;;;;28.58;18.02;;;;;;;1.07;100.00;95930.31;5068196;28;24445;-71
2022/12/02 09:26:06;;;;;;;28.30;17.58;;;;;;;1.02;100.00;95924.50;5068223;28;24440;-71
2022/12/02 09:28:33;;;;;;;24.67;16.35;;;;;;;1.17;100.00;95930.97;5067971;28;24442;-71
2022/12/02 09:30:59;;;;;;;24.40;16.90;;;;;;;1.25;100.00;95926.50;5065911;28;24437;-71
2022/12/02 09:33:26;;;;;;;36.20;17.85;;;;;;;1.17;100.00;95929.25;5067015;28;24435;-70
2022/12/02 09:35:52;;;;;;;27.80;17.35;;;;;;;1.27;100.00;95931.59;5065660;28;24435;-71
2022/12/02 09:38:20;;;;;;;29.83;17.80;;;;;;;1.24;100.00;95926.56;5069964;28;24457;-71
2022/12/02 09:40:47;;;;;;;25.38;17.38;;;;;;;1.37;100.00;95928.78;5067567;28;24435;-71
2022/12/02 09:43:14;;;;;;;26.58;17.05;;;;;;;1.27;100.00;95923.94;5070033;28;24446;-71
2022/12/02 09:45:40;;;;;;;24.33;17.38;;;;;;;1.30;100.00;95931.50;5061659;28;24999;-71
2022/12/02 09:48:08;;;;;;;26.08;16.55;;;;;;;1.38;100.00;95924.50;5068048;28;24435;-70
2022/12/02 09:50:35;;;;;;;24.48;17.20;;;;;;;1.34;100.00;95933.13;5069108;28;24437;-70
2022/12/02 09:53:05;;;;;;;27.88;17.13;;;;;;;1.28;100.00;95912.84;5063686;28;24541;-71
2022/12/02 09:55:34;;;;;;;29.75;16.45;;;;;;;1.12;100.00;95918.31;5069185;28;24449;-71
2022/12/02 09:58:10;;;;;;;33.28;17.52;;;;;;;1.08;100.00;95919.25;5067820;28;24496;-71
2022/12/02 10:00:37;;;;;;;33.53;18.25;;;;;;;1.05;100.00;95909.13;5070350;28;24434;-71
2022/12/02 10:03:07;;;;;;;31.58;18.25;;;;;;;1.06;100.00;95921.00;5065165;28;24439;-71
2022/12/02 10:05:35;;;;;;;32.25;18.50;;;;;;;1.04;100.00;95911.69;5060888;28;24844;-71
2022/12/02 10:08:02;;;;;;;42.65;18.00;;;;;;;1.02;100.00;95916.84;5067122;28;24988;-71
2022/12/02 10:10:37;;;;;;;27.40;17.95;;;;;;;1.04;100.00;95911.69;5069623;28;24434;-71
2022/12/02 10:13:03;;;;;;;27.80;17.57;;;;;;;1.19;100.00;95909.66;5068126;28;24439;-72
2022/12/02 10:15:31;;;;;;;26.23;17.10;;;;;;;1.33;100.00;95905.91;5061448;28;24437;-71
2022/12/02 10:18:02;;;;;;;23.48;15.63;;;;;;;1.28;100.00;95908.56;5066699;28;24537;-70
2022/12/02 10:20:29;;;;;;;25.83;15.98;;;;;;;1.20;100.00;95911.31;5066060;28;24443;-70
2022/12/02 10:23:07;;;;;;;23.75;15.52;;;;;;;1.31;100.00;95902.56;5056248;28;24446;-72
2022/12/02 10:25:36;;;;;;;21.83;14.47;;;;;;;1.30;100.00;95905.97;5069266;28;24435;-71
2022/12/02 10:28:04;;;;;;;24.70;13.20;;;;;;;1.55;100.00;95893.44;5063293;28;24427;-70
2022/12/02 10:30:31;;;;;;;18.83;12.95;;;;;;;1.51;100.00;95895.25;5070484;28;24797;-70
2022/12/02 10:33:00;;;;;;;16.27;12.50;;;;;;;1.52;100.00;95884.19;5068937;28;24446;-71
2022/12/02 10:35:27;;;;;;;18.50;12.93;;;;;;;1.51;100.00;95889.31;5069627;28;24563;-71
2022/12/02 10:37:53;;;;;;;19.10;13.43;;;;;;;1.40;100.00;95882.75;5062517;28;24458;-70
2022/12/02 10:40:23;;;;;;;17.15;11.57;;;;;;;1.54;100.00;95884.97;5060122;28;24440;-70
2022/12/02 10:43:09;;;;;;;19.88;12.98;;;;;;;1.51;100.00;95884.19;5059603;28;24471;-70
2022/12/02 10:45:36;;;;;;;15.03;11.00;;;;;;;1.50;100.00;95875.72;5067607;28;24526;-70
2022/12/02 10:48:16;;;;;;;15.25;10.77;;;;;;;1.43;100.00;95876.75;5069826;28;24431;-70
2022/12/02 10:50:43;;;;;;;13.45;10.30;;;;;;;1.48;100.00;95874.06;5060546;28;24439;-71
2022/12/02 10:53:13;;;;;;;14.38;9.43;;;;;;;1.52;100.00;95868.88;5059156;28;24442;-71
2022/12/02 10:55:40;;;;;;;11.07;8.50;;;;;;;1.63;100.00;95869.41;5061797;28;24533;-71
2022/12/02 10:58:11;;;;;;;14.40;9.43;;;;;;;1.56;100.00;95867.91;5064521;28;24554;-71
2022/12/02 11:00:38;;;;;;;14.00;8.98;;;;;;;1.65;100.00;95861.72;5068576;28;24431;-71
2022/12/02 11:03:05;;;;;;;10.30;8.07;;;;;;;1.66;100.00;95866.75;5059412;28;24495;-71
2022/12/02 11:05:34;;;;;;;9.77;8.15;;;;;;;1.61;100.00;95858.41;5054589;28;24435;-71
2022/12/02 11:08:02;;;;;;;10.05;7.97;;;;;;;1.62;100.00;95864.34;5060318;28;24441;-71
2022/12/02 11:10:35;;;;;;;9.85;8.25;;;;;;;1.60;100.00;95851.63;5067260;28;24449;-71
2022/12/02 11:13:32;;;;;;;9.13;7.57;;;;;;;1.59;100.00;95847.38;5069580;28;24484;-71
2022/12/02 11:16:44;;;;;;;8.67;6.83;;;;;;;1.80;100.00;95850.25;5069405;28;24441;-71
2022/12/02 11:19:45;;;;;;;9.00;7.00;;;;;;;1.86;100.00;95844.97;5057199;28;24477;-71
2022/12/02 11:22:49;;;;;;;9.52;7.35;;;;;;;1.83;100.00;95845.91;5063337;28;24449;-71
2022/12/02 11:25:49;;;;;;;9.50;7.13;;;;;;;1.74;100.00;95843.56;5061536;28;24442;-71